Orlando, Florida
Traffic Map
Current Weather Conditions
Orlando, Florida
Clear
Clear
20°
Feels Like: 20°
Wind Chill: 20° Ceiling: Unl
Heat Index: 20° Visibility: 10mi
Dew Point: 11° Wind: 7mph
Humidity: 56% Direction: 330° (NNW)
Pressure: 29.84in Gusts: 0mph
Raw Report DataKORL 060453Z AUTO 33006KT 10SM CLR 20/11 A2984 RMK AO2 SLP107 T02000111 402890161
Traffic Incident Summary
Active as of:
Severity:
Category:
InformationThere was an issue retrieving the traffic information for this location. Please try a different location or try again shortly.
Advertisements
Track Severe Weather on mobile